Time;durP1;ratioP1;P1;durP2;ratioP2;P2;SDS_P1;SDS_P2;PMS_P1;PMS_P2;Temp;Humidity;BMP_temperature;BMP_pressure;BME280_temperature;BME280_humidity;BME280_pressure;Samples;Min_cycle;Max_cycle;Signal;HPM_P1;HPM_P2
2021/09/04 00:03:50;;;;;;;14.25;8.08;;;;;;;11.08;75.05;99987.43;255322;1101;115544;-67
2021/09/04 00:08:54;;;;;;;11.88;6.83;;;;;;;11.08;75.63;99988.23;254225;1103;115953;-67
2021/09/04 00:13:58;;;;;;;19.30;7.48;;;;;;;11.10;75.26;99991.48;254469;1101;115225;-66
2021/09/04 00:19:01;;;;;;;10.78;8.23;;;;;;;11.14;75.59;99997.17;254341;1101;115778;-66
2021/09/04 00:24:04;;;;;;;15.58;9.98;;;;;;;11.07;75.56;99991.14;254315;1101;115228;-66
2021/09/04 00:29:07;;;;;;;14.08;8.83;;;;;;;11.00;75.47;99983.27;254313;1102;115648;-66
2021/09/04 00:34:11;;;;;;;15.10;8.55;;;;;;;10.96;75.87;99995.45;254769;1101;117543;-66
2021/09/04 00:39:15;;;;;;;9.63;7.70;;;;;;;10.96;75.59;99991.97;254336;1101;115247;-66
2021/09/04 00:44:20;;;;;;;12.25;7.95;;;;;;;10.91;75.70;99997.17;254722;1102;115224;-66
2021/09/04 00:49:23;;;;;;;15.93;9.00;;;;;;;10.76;75.35;99995.75;254378;1101;115832;-66
2021/09/04 00:54:26;;;;;;;12.40;8.20;;;;;;;10.65;75.19;100003.74;254150;1102;115493;-67
2021/09/04 00:59:30;;;;;;;19.18;9.88;;;;;;;10.60;75.66;100001.75;254374;1101;115429;-67
2021/09/04 01:04:52;;;;;;;13.48;8.85;;;;;;;10.54;75.34;100004.52;254184;1097;115230;-67
2021/09/04 01:09:56;;;;;;;11.38;7.83;;;;;;;10.55;76.04;100004.28;254310;1101;115601;-65
2021/09/04 01:14:59;;;;;;;12.15;8.68;;;;;;;10.63;76.20;100016.48;255754;1097;115061;-66
2021/09/04 01:20:05;;;;;;;12.25;8.93;;;;;;;10.67;76.41;100014.99;254213;1101;116155;-66
2021/09/04 01:25:09;;;;;;;12.67;7.90;;;;;;;10.66;76.31;100014.18;255189;1101;115840;-66
2021/09/04 01:30:12;;;;;;;14.30;8.35;;;;;;;10.68;76.17;100019.28;257328;1101;115997;-66
2021/09/04 01:35:20;;;;;;;15.68;10.73;;;;;;;10.67;76.20;100014.99;257283;1101;116186;-66
2021/09/04 01:40:24;;;;;;;11.95;9.03;;;;;;;10.67;76.37;100012.33;255602;1096;115133;-66
2021/09/04 01:45:26;;;;;;;16.40;8.73;;;;;;;10.71;76.51;100019.61;254486;1097;115962;-67
2021/09/04 01:50:30;;;;;;;17.68;8.25;;;;;;;10.78;76.84;100022.19;254313;1101;116387;-66
2021/09/04 01:55:33;;;;;;;13.00;9.38;;;;;;;10.77;76.49;100017.89;255253;1101;115884;-67
2021/09/04 02:00:37;;;;;;;11.78;7.75;;;;;;;10.77;76.16;100009.89;254695;1104;117795;-67
2021/09/04 02:05:41;;;;;;;12.80;8.65;;;;;;;10.73;76.43;100014.05;254484;1101;115789;-67
2021/09/04 02:10:44;;;;;;;11.40;8.23;;;;;;;10.66;76.01;100011.52;253958;1101;116844;-67
2021/09/04 02:15:46;;;;;;;14.28;8.33;;;;;;;10.61;76.49;100015.89;254721;1102;117038;-66
2021/09/04 02:20:49;;;;;;;10.07;7.00;;;;;;;10.54;76.34;100012.51;254208;1104;115564;-66
2021/09/04 02:25:52;;;;;;;11.88;7.98;;;;;;;10.49;76.84;100015.85;254410;1102;116314;-66
2021/09/04 02:30:55;;;;;;;12.38;6.78;;;;;;;10.43;76.83;100022.89;254233;1101;116384;-67
2021/09/04 02:35:59;;;;;;;15.70;7.55;;;;;;;10.30;76.41;100022.28;254727;1104;116014;-65
2021/09/04 02:41:02;;;;;;;11.23;6.00;;;;;;;10.25;76.48;100022.14;254591;1104;116715;-66
2021/09/04 02:46:05;;;;;;;13.13;5.97;;;;;;;10.17;76.46;100031.22;255094;1097;116337;-65
2021/09/04 02:51:08;;;;;;;10.20;6.53;;;;;;;10.11;76.50;100029.45;254326;1104;115944;-66
2021/09/04 02:56:11;;;;;;;10.00;5.28;;;;;;;10.06;76.62;100034.66;254513;1104;116262;-67
2021/09/04 03:01:14;;;;;;;9.33;6.18;;;;;;;10.07;77.12;100039.77;256054;1100;115636;-67
2021/09/04 03:06:17;;;;;;;9.78;7.85;;;;;;;10.02;77.11;100038.80;256258;1104;117754;-67
2021/09/04 03:11:22;;;;;;;9.60;5.70;;;;;;;9.91;76.69;100039.54;254345;1101;117073;-66
2021/09/04 03:16:25;;;;;;;10.85;5.85;;;;;;;9.80;76.95;100049.07;254686;1101;116579;-67
2021/09/04 03:21:29;;;;;;;9.75;5.80;;;;;;;9.76;76.64;100048.73;257147;1101;116533;-67
2021/09/04 03:26:32;;;;;;;9.58;5.43;;;;;;;9.76;76.68;100048.73;257438;1101;116598;-66
2021/09/04 03:31:35;;;;;;;9.30;5.98;;;;;;;9.76;77.10;100040.74;255560;1101;116259;-66
2021/09/04 03:36:38;;;;;;;8.15;6.15;;;;;;;9.72;76.61;100044.06;255490;1101;116569;-66
2021/09/04 03:41:42;;;;;;;10.05;5.83;;;;;;;9.63;76.64;100048.86;256745;1101;115257;-66
2021/09/04 03:46:46;;;;;;;8.30;4.85;;;;;;;9.60;76.42;100053.80;255166;1101;115882;-65
2021/09/04 03:51:49;;;;;;;5.60;4.67;;;;;;;9.59;77.21;100060.97;254220;1104;115898;-66
2021/09/04 03:56:53;;;;;;;10.93;5.18;;;;;;;9.55;77.24;100062.45;255238;1102;115509;-64
2021/09/04 04:01:56;;;;;;;8.38;4.33;;;;;;;9.57;77.64;100070.20;254711;1101;115874;-68
2021/09/04 04:07:01;;;;;;;6.53;4.75;;;;;;;9.47;76.37;100075.23;254045;1104;115432;-67
2021/09/04 04:12:04;;;;;;;8.23;5.48;;;;;;;9.32;76.98;100083.55;254152;1101;116968;-68
2021/09/04 04:17:08;;;;;;;16.53;6.60;;;;;;;9.24;77.24;100078.48;254444;1101;115992;-66
2021/09/04 04:22:12;;;;;;;5.60;3.77;;;;;;;9.17;77.04;100078.57;254931;1097;115841;-69
2021/09/04 04:27:15;;;;;;;5.58;3.48;;;;;;;9.14;76.91;100084.32;255131;1104;115689;-66
2021/09/04 04:32:18;;;;;;;9.60;4.30;;;;;;;9.18;77.32;100089.99;254789;1103;116867;-67
2021/09/04 04:37:21;;;;;;;8.40;4.55;;;;;;;9.26;77.39;100095.05;254479;1102;115599;-66
2021/09/04 04:42:25;;;;;;;5.67;4.37;;;;;;;9.36;77.13;100101.52;254196;1104;116261;-67
2021/09/04 04:47:28;;;;;;;6.55;4.48;;;;;;;9.46;77.72;100106.36;255002;1102;115768;-66
2021/09/04 04:52:31;;;;;;;6.78;5.08;;;;;;;9.56;77.88;100103.99;253955;1102;115021;-65
2021/09/04 04:57:35;;;;;;;8.58;4.65;;;;;;;9.70;78.03;100099.38;255439;1101;115412;-64
2021/09/04 05:02:39;;;;;;;9.35;5.65;;;;;;;9.80;77.53;100095.15;254518;1096;117103;-65
2021/09/04 05:07:42;;;;;;;6.18;4.40;;;;;;;9.93;77.99;100101.38;253844;1097;117136;-66
2021/09/04 05:12:45;;;;;;;9.00;5.55;;;;;;;10.03;77.75;100101.69;254273;1101;116014;-65
2021/09/04 05:17:48;;;;;;;9.00;6.15;;;;;;;10.16;77.71;100104.19;254548;1101;117381;-66
2021/09/04 05:22:50;;;;;;;9.23;6.05;;;;;;;10.29;78.16;100111.25;257173;1102;115600;-66
2021/09/04 05:27:53;;;;;;;16.43;6.65;;;;;;;10.46;78.03;100118.39;257459;1101;115951;-65
2021/09/04 05:32:56;;;;;;;6.70;5.50;;;;;;;10.66;78.51;100125.34;257382;1101;116732;-65
2021/09/04 05:38:00;;;;;;;11.18;8.15;;;;;;;10.85;78.73;100120.77;256977;1101;116726;-66
2021/09/04 05:43:04;;;;;;;12.60;7.90;;;;;;;11.03;78.90;100121.50;254221;1097;118004;-66
2021/09/04 05:48:11;;;;;;;16.45;6.70;;;;;;;11.22;78.93;100121.44;254881;1101;116357;-67
2021/09/04 05:53:22;;;;;;;17.65;7.30;;;;;;;11.37;78.78;100117.27;254338;1097;116586;-68
2021/09/04 05:58:26;;;;;;;15.20;5.65;;;;;;;11.53;78.03;100131.81;254256;1097;116131;-67
2021/09/04 06:03:30;;;;;;;11.53;5.30;;;;;;;11.63;78.76;100126.69;253810;1102;117099;-67
2021/09/04 06:08:35;;;;;;;8.23;4.93;;;;;;;11.75;78.82;100126.70;254552;1102;116205;-65
2021/09/04 06:13:38;;;;;;;7.73;5.63;;;;;;;11.90;78.98;100127.09;255161;1102;115916;-66
2021/09/04 06:18:45;;;;;;;7.58;4.68;;;;;;;12.07;78.50;100135.19;254672;1102;116981;-64
2021/09/04 06:23:47;;;;;;;5.80;3.70;;;;;;;12.17;78.68;100137.27;254090;1104;118432;-66
2021/09/04 06:28:51;;;;;;;6.48;4.18;;;;;;;12.31;78.30;100150.13;254572;1104;115885;-67
2021/09/04 06:33:54;;;;;;;4.90;3.55;;;;;;;12.38;78.03;100148.14;254053;1104;117113;-66
2021/09/04 06:38:57;;;;;;;4.55;3.15;;;;;;;12.55;77.78;100144.71;254133;1102;116421;-67
2021/09/04 06:44:00;;;;;;;4.10;2.87;;;;;;;12.73;77.29;100142.69;254123;1102;115860;-65
2021/09/04 06:49:02;;;;;;;2.95;2.38;;;;;;;12.89;77.13;100149.12;253951;1104;116372;-67
2021/09/04 06:54:05;;;;;;;7.73;3.00;;;;;;;13.11;76.12;100152.75;254232;1104;116122;-65
2021/09/04 06:59:10;;;;;;;2.45;2.23;;;;;;;13.28;76.14;100147.44;254119;1103;116756;-66
2021/09/04 07:04:14;;;;;;;5.83;2.35;;;;;;;13.44;75.31;100152.00;254218;1101;117399;-66
2021/09/04 07:09:18;;;;;;;3.00;1.95;;;;;;;13.66;75.06;100152.08;257071;1101;116697;-67
2021/09/04 07:14:21;;;;;;;4.50;3.08;;;;;;;14.44;74.81;100147.53;256879;1103;117391;-68
2021/09/04 07:19:25;;;;;;;5.85;3.00;;;;;;;15.78;73.73;100158.24;255546;1101;116166;-67
2021/09/04 07:24:28;;;;;;;3.75;2.58;;;;;;;17.03;72.52;100163.66;254764;1104;115988;-67
2021/09/04 07:29:32;;;;;;;3.73;2.63;;;;;;;17.65;70.70;100173.43;255969;1104;117061;-67
2021/09/04 07:34:35;;;;;;;3.55;1.80;;;;;;;17.91;69.23;100171.51;257209;1104;117331;-66
2021/09/04 07:39:38;;;;;;;2.00;1.63;;;;;;;17.88;68.12;100160.45;256745;1104;117049;-66
2021/09/04 07:44:41;;;;;;;7.78;2.05;;;;;;;17.96;67.02;100170.70;255292;1096;116401;-66
2021/09/04 07:49:44;;;;;;;10.95;2.23;;;;;;;17.82;66.29;100167.73;254081;1103;116429;-66
2021/09/04 07:54:47;;;;;;;5.35;1.83;;;;;;;17.61;65.83;100184.98;254104;1103;118870;-67
2021/09/04 07:59:52;;;;;;;2.30;1.87;;;;;;;17.41;65.52;100193.89;254120;1101;116013;-66
2021/09/04 08:04:54;;;;;;;2.33;2.13;;;;;;;17.25;65.26;100187.66;254210;1101;117951;-67
2021/09/04 08:09:57;;;;;;;5.05;2.35;;;;;;;17.11;64.97;100183.88;254285;1101;116103;-66
2021/09/04 08:15:00;;;;;;;7.03;1.93;;;;;;;16.94;64.58;100178.71;254083;1101;116289;-67
2021/09/04 08:20:05;;;;;;;2.33;2.05;;;;;;;16.98;64.48;100190.58;254199;1102;115924;-67
2021/09/04 08:25:10;;;;;;;3.83;2.85;;;;;;;17.03;64.40;100197.86;254199;1104;115484;-67
2021/09/04 08:30:14;;;;;;;3.98;2.10;;;;;;;17.18;64.16;100193.30;254283;1096;116689;-66
2021/09/04 08:35:18;;;;;;;2.70;1.77;;;;;;;17.38;64.21;100194.42;254380;1101;116516;-67
2021/09/04 08:40:21;;;;;;;1.60;1.50;;;;;;;17.46;63.01;100197.37;254638;1096;115216;-66
2021/09/04 08:45:26;;;;;;;4.45;1.50;;;;;;;17.64;63.06;100201.44;255020;1104;115493;-66
2021/09/04 08:50:30;;;;;;;2.50;1.33;;;;;;;17.89;62.75;100205.22;254956;1101;115578;-66
2021/09/04 08:55:33;;;;;;;4.38;2.08;;;;;;;18.23;62.13;100208.94;254415;1104;115976;-66
2021/09/04 09:00:40;;;;;;;2.95;1.20;;;;;;;18.51;61.59;100211.02;254078;1102;115280;-69
2021/09/04 09:05:44;;;;;;;4.08;1.13;;;;;;;18.77;60.15;100211.75;255928;1102;114922;-66
2021/09/04 09:10:47;;;;;;;2.20;1.43;;;;;;;18.93;58.69;100214.39;256244;1101;116073;-67
2021/09/04 09:15:54;;;;;;;5.95;2.20;;;;;;;19.20;59.17;100222.08;254140;1104;115349;-68
2021/09/04 09:21:02;;;;;;;1.90;1.23;;;;;;;19.30;57.83;100219.28;255622;1103;115586;-66
2021/09/04 09:26:07;;;;;;;1.40;1.28;;;;;;;19.57;57.87;100229.70;255113;1101;116093;-67
2021/09/04 09:31:10;;;;;;;1.70;1.23;;;;;;;19.90;56.74;100231.55;257163;1102;117857;-67
2021/09/04 09:36:14;;;;;;;1.73;0.85;;;;;;;20.15;55.92;100234.05;257161;1101;115102;-67
2021/09/04 09:41:17;;;;;;;1.78;1.68;;;;;;;20.30;54.58;100233.07;257021;1102;115891;-68
2021/09/04 09:46:19;;;;;;;2.30;1.38;;;;;;;20.38;54.11;100229.77;255094;1097;115600;-68
2021/09/04 09:51:22;;;;;;;1.60;1.20;;;;;;;20.39;53.63;100225.98;254224;1097;115929;-67
2021/09/04 09:56:26;;;;;;;6.75;2.08;;;;;;;20.51;52.99;100239.09;254205;1104;116116;-67
2021/09/04 10:01:30;;;;;;;2.08;1.33;;;;;;;20.69;53.15;100227.52;254816;1102;116749;-67
2021/09/04 10:06:34;;;;;;;3.30;2.00;;;;;;;20.77;52.07;100226.08;254135;1101;115956;-67
2021/09/04 10:11:38;;;;;;;1.70;1.33;;;;;;;20.76;51.56;100232.59;254419;1104;116236;-66
2021/09/04 10:16:43;;;;;;;1.88;1.25;;;;;;;20.92;51.27;100223.16;254351;1101;117365;-66
2021/09/04 10:21:47;;;;;;;4.00;1.48;;;;;;;21.16;51.43;100221.19;254354;1104;115982;-67
2021/09/04 10:26:59;;;;;;;1.63;1.53;;;;;;;21.27;50.22;100223.80;254326;1104;116416;-69
2021/09/04 10:32:04;;;;;;;3.18;1.43;;;;;;;21.29;50.10;100222.41;254203;1103;115943;-67
2021/09/04 10:37:14;;;;;;;1.70;1.40;;;;;;;21.43;48.93;100225.97;254252;1097;116497;-68
2021/09/04 10:42:27;;;;;;;1.48;1.05;;;;;;;21.47;48.65;100229.70;254817;1101;115776;-67
2021/09/04 10:47:47;;;;;;;2.25;1.63;;;;;;;21.44;47.95;100222.16;253997;1096;116510;-67
2021/09/04 10:52:56;;;;;;;1.47;1.30;;;;;;;21.50;48.48;100222.89;254296;1103;115870;-66
2021/09/04 10:58:05;;;;;;;1.98;1.25;;;;;;;21.59;46.96;100220.33;254989;1101;116235;-66
2021/09/04 11:03:21;;;;;;;1.70;1.25;;;;;;;21.57;47.39;100215.19;255662;1102;116667;-67
2021/09/04 11:08:35;;;;;;;2.67;1.33;;;;;;;21.77;47.04;100212.13;254105;1103;117360;-67
2021/09/04 11:13:47;;;;;;;6.40;2.38;;;;;;;21.92;47.26;100213.80;254164;1104;116860;-68
2021/09/04 11:18:50;;;;;;;0.90;0.88;;;;;;;21.93;46.27;100220.03;254538;1102;116500;-68
2021/09/04 11:23:53;;;;;;;0.98;0.95;;;;;;;21.92;46.22;100215.70;254043;1101;116548;-67
2021/09/04 11:28:57;;;;;;;1.43;1.33;;;;;;;22.01;46.01;100224.81;254252;1104;117045;-68
2021/09/04 11:34:00;;;;;;;1.53;1.20;;;;;;;22.01;45.01;100217.44;257238;1104;116872;-68
2021/09/04 11:39:04;;;;;;;1.63;1.43;;;;;;;21.99;44.99;100219.64;257277;1104;117574;-68
2021/09/04 11:44:10;;;;;;;2.08;1.08;;;;;;;22.05;44.83;100223.89;257258;1104;117394;-67
2021/09/04 11:49:13;;;;;;;1.40;1.30;;;;;;;22.11;44.13;100213.75;257329;1101;117137;-68
2021/09/04 11:54:27;;;;;;;2.50;1.38;;;;;;;22.09;44.52;100208.62;256616;1103;115432;-68
2021/09/04 11:59:30;;;;;;;1.95;1.33;;;;;;;22.13;44.39;100215.06;255896;1104;116974;-68
2021/09/04 12:04:34;;;;;;;3.25;1.78;;;;;;;22.13;44.21;100209.63;254274;1103;116355;-69
2021/09/04 12:09:37;;;;;;;1.53;1.10;;;;;;;21.98;43.26;100209.89;254098;1103;117651;-68
2021/09/04 12:14:40;;;;;;;2.68;1.80;;;;;;;21.66;44.36;100207.19;254326;1101;119596;-68
2021/09/04 12:19:44;;;;;;;1.20;0.95;;;;;;;21.81;45.04;100201.49;255523;1101;117314;-68
2021/09/04 12:24:47;;;;;;;4.08;1.93;;;;;;;21.88;43.83;100207.34;254585;1104;116171;-67
2021/09/04 12:30:01;;;;;;;1.40;1.17;;;;;;;21.88;43.59;100201.92;254286;1104;116273;-67
2021/09/04 12:35:06;;;;;;;2.05;1.20;;;;;;;21.80;43.22;100200.69;255174;1102;116891;-69
2021/09/04 12:40:13;;;;;;;3.00;1.68;;;;;;;21.74;43.98;100201.88;254353;1097;115926;-67
2021/09/04 12:45:18;;;;;;;1.30;1.10;;;;;;;21.85;44.15;100208.75;254418;1098;116089;-68
2021/09/04 12:50:24;;;;;;;2.05;1.38;;;;;;;21.75;44.17;100208.11;254337;1096;116019;-68
2021/09/04 12:55:55;;;;;;;1.70;1.60;;;;;;;21.73;44.16;100207.59;254318;1102;117953;-68
2021/09/04 13:01:11;;;;;;;3.28;1.90;;;;;;;21.71;43.82;100201.66;254299;1101;116669;-67
2021/09/04 13:06:14;;;;;;;2.10;1.80;;;;;;;21.68;43.85;100219.36;254047;1101;115242;-67
2021/09/04 13:11:17;;;;;;;2.10;1.57;;;;;;;21.63;44.00;100218.63;255530;1101;115990;-68
2021/09/04 13:16:21;;;;;;;1.80;1.58;;;;;;;21.61;44.04;100218.13;254212;1102;116616;-67
2021/09/04 13:21:24;;;;;;;1.60;1.38;;;;;;;21.60;44.02;100211.89;256024;1103;114897;-67
2021/09/04 13:26:28;;;;;;;1.70;1.58;;;;;;;21.57;43.82;100212.48;255919;1104;115299;-68
2021/09/04 13:31:32;;;;;;;1.47;1.37;;;;;;;21.36;43.30;100212.00;254019;1104;117117;-70
2021/09/04 13:36:36;;;;;;;4.65;1.85;;;;;;;21.32;43.79;100207.45;254160;1103;116921;-67
2021/09/04 13:41:40;;;;;;;3.83;1.33;;;;;;;21.31;43.33;100203.13;255389;1103;116556;-67
2021/09/04 13:46:44;;;;;;;2.40;1.98;;;;;;;21.17;43.42;100211.16;257324;1104;116088;-67
2021/09/04 13:51:48;;;;;;;3.57;1.77;;;;;;;21.15;43.53;100208.73;257059;1102;119393;-67
2021/09/04 13:56:51;;;;;;;2.33;1.68;;;;;;;21.09;43.89;100206.41;255760;1101;116498;-67
2021/09/04 14:01:54;;;;;;;2.60;2.03;;;;;;;21.07;43.64;100214.03;254284;1102;116951;-65
2021/09/04 14:06:58;;;;;;;2.98;1.58;;;;;;;21.02;43.47;100211.38;254315;1102;116167;-66
2021/09/04 14:12:02;;;;;;;2.30;1.58;;;;;;;20.86;43.99;100210.77;254050;1101;117042;-67
2021/09/04 14:17:06;;;;;;;2.68;1.55;;;;;;;20.68;43.66;100214.27;254502;1101;116420;-66
2021/09/04 14:22:10;;;;;;;3.03;1.65;;;;;;;20.53;43.93;100209.02;255146;1101;116886;-67
2021/09/04 14:27:13;;;;;;;2.73;1.40;;;;;;;20.38;44.19;100208.11;255325;1101;117525;-67
2021/09/04 14:32:15;;;;;;;2.80;1.60;;;;;;;20.21;44.04;100218.54;254084;1096;116256;-65
2021/09/04 14:37:19;;;;;;;1.40;1.25;;;;;;;20.09;44.47;100215.44;254179;1103;115055;-66
2021/09/04 14:42:22;;;;;;;1.88;1.58;;;;;;;19.96;44.49;100205.27;254491;1103;115858;-66
2021/09/04 14:47:26;;;;;;;1.55;1.23;;;;;;;19.88;44.14;100205.88;254115;1104;115108;-65
2021/09/04 14:52:28;;;;;;;2.20;1.10;;;;;;;19.82;44.43;100210.55;254349;1097;115258;-66
2021/09/04 14:57:31;;;;;;;2.37;1.63;;;;;;;19.55;43.95;100205.64;254410;1104;115754;-66
2021/09/04 15:02:34;;;;;;;2.48;1.83;;;;;;;19.46;44.60;100212.70;254860;1102;115622;-68
2021/09/04 15:07:38;;;;;;;2.03;1.28;;;;;;;19.39;44.43;100212.20;253904;1103;115573;-68
2021/09/04 15:12:41;;;;;;;3.18;1.75;;;;;;;19.14;44.75;100203.18;254058;1101;115476;-66
2021/09/04 15:17:43;;;;;;;1.80;1.23;;;;;;;19.03;45.30;100212.42;255650;1101;115135;-68
2021/09/04 15:22:47;;;;;;;1.30;1.15;;;;;;;19.03;45.15;100215.13;254217;1104;118367;-66
2021/09/04 15:27:49;;;;;;;2.38;1.85;;;;;;;18.92;45.19;100224.39;256128;1101;116745;-66
2021/09/04 15:32:52;;;;;;;4.93;1.60;;;;;;;18.79;45.43;100220.38;254301;1101;116982;-68
2021/09/04 15:37:54;;;;;;;1.88;1.23;;;;;;;18.69;45.61;100216.91;256127;1102;116197;-66
2021/09/04 15:42:58;;;;;;;4.95;1.40;;;;;;;18.61;45.32;100220.20;257281;1104;115937;-67
2021/09/04 15:48:01;;;;;;;1.80;1.45;;;;;;;18.52;45.84;100219.92;255696;1101;116499;-66
2021/09/04 15:53:08;;;;;;;4.63;2.13;;;;;;;18.44;46.37;100218.59;254375;1101;116265;-66
2021/09/04 15:58:12;;;;;;;3.35;1.78;;;;;;;18.34;46.38;100215.95;257267;1101;115079;-65
2021/09/04 16:03:15;;;;;;;8.10;1.65;;;;;;;18.08;46.53;100212.47;255913;1101;116183;-66
2021/09/04 16:08:19;;;;;;;2.97;1.43;;;;;;;17.91;47.01;100213.85;254453;1101;115877;-65
2021/09/04 16:13:23;;;;;;;3.65;2.35;;;;;;;17.74;47.77;100212.23;254859;1101;120030;-65
2021/09/04 16:18:27;;;;;;;5.20;1.50;;;;;;;17.60;48.15;100208.44;255035;1097;115133;-65
2021/09/04 16:23:30;;;;;;;3.03;1.88;;;;;;;17.47;48.71;100206.27;254887;1102;216802;-66
2021/09/04 16:28:33;;;;;;;4.25;1.70;;;;;;;17.30;49.07;100203.84;254029;1101;116180;-65
2021/09/04 16:33:42;;;;;;;1.43;1.30;;;;;;;17.16;49.81;100211.61;255207;1101;115974;-67
2021/09/04 16:38:46;;;;;;;2.65;1.78;;;;;;;16.99;50.18;100216.44;254214;1101;115969;-67
2021/09/04 16:43:50;;;;;;;5.85;2.38;;;;;;;16.81;50.82;100216.92;255129;1096;117240;-66
2021/09/04 16:48:53;;;;;;;7.30;3.08;;;;;;;16.59;51.65;100229.70;254130;1102;115297;-67
2021/09/04 16:53:57;;;;;;;6.30;3.17;;;;;;;16.31;52.33;100230.91;254086;1103;116095;-65
2021/09/04 16:59:01;;;;;;;3.68;2.10;;;;;;;16.03;52.85;100226.69;254782;1104;115985;-65
2021/09/04 17:04:04;;;;;;;6.60;2.50;;;;;;;15.80;53.79;100231.38;254130;1097;209443;-66
2021/09/04 17:09:07;;;;;;;4.83;3.00;;;;;;;15.58;54.06;100240.59;254972;1104;116067;-67
2021/09/04 17:14:11;;;;;;;6.95;2.93;;;;;;;15.34;54.90;100235.48;254232;1102;115474;-67
2021/09/04 17:19:15;;;;;;;7.63;2.87;;;;;;;15.11;54.95;100238.47;254315;1102;115681;-66
2021/09/04 17:24:19;;;;;;;5.48;2.78;;;;;;;14.88;55.87;100236.88;255246;1101;115548;-67
2021/09/04 17:29:22;;;;;;;8.25;3.78;;;;;;;14.66;56.50;100242.26;255683;1101;115474;-66
2021/09/04 17:34:25;;;;;;;11.93;4.33;;;;;;;14.44;56.27;100254.81;257335;1101;116054;-66
2021/09/04 17:39:29;;;;;;;5.03;3.08;;;;;;;14.25;57.12;100243.53;257094;1101;118379;-65
2021/09/04 17:44:32;;;;;;;4.43;2.83;;;;;;;14.06;56.90;100264.42;257114;1102;115197;-65
2021/09/04 17:49:35;;;;;;;9.33;3.43;;;;;;;13.91;57.70;100266.06;257166;1101;115183;-65
2021/09/04 17:54:38;;;;;;;10.28;3.83;;;;;;;13.75;58.21;100265.83;256393;1103;116890;-65
2021/09/04 17:59:41;;;;;;;5.20;2.10;;;;;;;13.59;58.69;100273.83;257076;1102;117040;-64
2021/09/04 18:04:44;;;;;;;5.65;3.00;;;;;;;13.43;58.85;100278.92;254029;1102;115852;-64
2021/09/04 18:09:47;;;;;;;5.00;2.93;;;;;;;13.32;59.03;100287.00;254937;1097;115780;-65
2021/09/04 18:14:50;;;;;;;6.08;4.70;;;;;;;13.20;60.02;100294.25;256427;1101;116483;-64
2021/09/04 18:19:54;;;;;;;4.05;3.08;;;;;;;13.06;60.14;100299.05;256648;1101;115987;-64
2021/09/04 18:24:58;;;;;;;9.57;3.93;;;;;;;12.90;60.47;100300.58;255013;1103;116389;-64
2021/09/04 18:30:01;;;;;;;6.20;2.93;;;;;;;12.66;61.03;100315.86;255286;1101;115768;-68
2021/09/04 18:35:06;;;;;;;5.93;4.10;;;;;;;12.50;61.87;100318.44;255433;1102;115111;-64
2021/09/04 18:40:11;;;;;;;6.33;4.03;;;;;;;12.41;62.13;100317.97;254784;1096;115712;-64
2021/09/04 18:45:15;;;;;;;6.13;4.13;;;;;;;12.31;62.27;100329.23;255752;1102;117099;-66
2021/09/04 18:50:20;;;;;;;10.23;4.43;;;;;;;12.15;62.77;100329.92;254318;1102;115944;-65
2021/09/04 18:55:25;;;;;;;9.05;4.70;;;;;;;12.02;63.28;100338.14;255091;1102;115545;-65
2021/09/04 19:00:28;;;;;;;11.95;4.68;;;;;;;11.91;63.26;100330.94;254285;1096;117313;-66
2021/09/04 19:05:32;;;;;;;11.30;5.65;;;;;;;11.69;63.66;100335.93;253917;1103;116066;-64
2021/09/04 19:10:35;;;;;;;9.68;5.35;;;;;;;11.60;64.52;100339.98;254016;1103;116042;-65
2021/09/04 19:15:40;;;;;;;10.35;4.80;;;;;;;11.55;64.48;100346.00;254149;1104;116031;-65
2021/09/04 19:20:45;;;;;;;10.38;6.80;;;;;;;11.50;64.40;100348.52;255799;1102;116198;-65
2021/09/04 19:25:48;;;;;;;10.78;7.55;;;;;;;11.42;64.87;100362.17;255534;1101;115758;-65
2021/09/04 19:30:51;;;;;;;18.90;7.75;;;;;;;11.22;65.05;100362.42;254023;1103;116100;-65
2021/09/04 19:35:55;;;;;;;9.48;6.03;;;;;;;11.11;65.47;100371.98;254110;1102;116379;-66
2021/09/04 19:40:58;;;;;;;9.33;7.10;;;;;;;10.95;66.56;100377.11;257321;1102;115800;-66
2021/09/04 19:46:02;;;;;;;11.33;7.95;;;;;;;10.90;66.21;100372.43;257067;1101;116577;-65
2021/09/04 19:51:06;;;;;;;14.75;10.00;;;;;;;10.88;66.31;100369.16;257022;1102;115661;-64
2021/09/04 19:56:10;;;;;;;16.35;10.95;;;;;;;10.85;66.16;100374.94;257179;1101;116013;-65
2021/09/04 20:01:13;;;;;;;12.18;9.78;;;;;;;10.79;66.66;100378.48;257022;1101;115512;-65
2021/09/04 20:06:17;;;;;;;25.98;8.90;;;;;;;10.60;66.89;100384.83;256148;1103;116628;-66
2021/09/04 20:11:20;;;;;;;10.93;7.90;;;;;;;10.42;66.60;100385.58;255332;1103;117058;-65
2021/09/04 20:16:24;;;;;;;10.75;9.28;;;;;;;10.20;66.95;100389.66;255074;1104;117576;-64
2021/09/04 20:21:28;;;;;;;16.63;12.23;;;;;;;10.06;67.81;100392.40;255134;1103;116037;-64
2021/09/04 20:26:31;;;;;;;16.50;13.28;;;;;;;9.98;67.96;100395.31;254507;1101;116798;-65
2021/09/04 20:31:35;;;;;;;15.60;11.90;;;;;;;10.00;68.41;100403.91;254937;1101;117475;-66
2021/09/04 20:36:53;;;;;;;20.20;11.70;;;;;;;10.05;68.75;100408.59;254276;1101;116314;-66
2021/09/04 20:41:58;;;;;;;15.80;10.40;;;;;;;10.06;68.47;100405.72;254886;1101;115864;-65
2021/09/04 20:47:07;;;;;;;16.20;10.10;;;;;;;10.03;69.06;100405.33;254853;1101;116419;-65
2021/09/04 20:52:10;;;;;;;20.60;12.40;;;;;;;10.06;69.21;100410.23;254989;1104;115773;-65
2021/09/04 20:57:13;;;;;;;19.15;10.73;;;;;;;10.11;69.54;100432.50;255056;1101;115984;-66
2021/09/04 21:02:16;;;;;;;16.43;9.75;;;;;;;9.99;69.25;100420.92;254327;1096;116165;-65
2021/09/04 21:07:20;;;;;;;13.65;7.35;;;;;;;9.88;69.44;100424.25;254700;1101;115681;-65
2021/09/04 21:12:25;;;;;;;15.40;9.03;;;;;;;9.84;69.89;100432.87;254646;1101;115297;-66
2021/09/04 21:17:28;;;;;;;14.50;9.18;;;;;;;9.86;70.36;100436.95;254588;1096;115728;-65
2021/09/04 21:22:32;;;;;;;11.05;8.95;;;;;;;9.83;69.95;100442.70;255513;1101;117063;-65
2021/09/04 21:27:36;;;;;;;18.43;10.43;;;;;;;9.83;70.51;100445.36;255772;1104;116084;-66
2021/09/04 21:32:39;;;;;;;11.43;8.23;;;;;;;9.67;69.54;100441.36;256642;1101;116276;-66
2021/09/04 21:37:42;;;;;;;12.93;8.75;;;;;;;9.50;70.17;100458.81;257195;1104;115647;-66
2021/09/04 21:42:45;;;;;;;8.45;6.68;;;;;;;9.34;69.34;100459.28;254468;1101;115614;-64
2021/09/04 21:47:51;;;;;;;13.15;8.40;;;;;;;9.16;70.06;100459.13;257131;1103;115101;-66
2021/09/04 21:52:54;;;;;;;16.90;10.80;;;;;;;9.12;70.93;100469.37;257247;1103;115065;-65
2021/09/04 21:57:57;;;;;;;17.13;11.10;;;;;;;9.25;71.01;100471.16;256058;1097;115975;-64
2021/09/04 22:03:00;;;;;;;11.03;9.75;;;;;;;9.33;71.62;100485.07;257283;1101;116275;-65
2021/09/04 22:08:04;;;;;;;28.38;10.98;;;;;;;9.28;71.01;100486.72;256460;1101;115268;-65
2021/09/04 22:13:08;;;;;;;12.93;8.30;;;;;;;9.19;71.45;100493.27;256519;1102;117309;-65
2021/09/04 22:18:11;;;;;;;16.75;9.90;;;;;;;9.12;71.85;100490.64;255721;1101;115448;-65
2021/09/04 22:23:14;;;;;;;11.73;7.90;;;;;;;9.15;72.29;100503.53;254250;1102;116428;-63
2021/09/04 22:28:17;;;;;;;12.10;8.30;;;;;;;9.23;72.26;100500.63;254726;1101;116503;-65
2021/09/04 22:33:22;;;;;;;8.88;7.08;;;;;;;9.33;72.67;100502.88;255104;1101;115876;-65
2021/09/04 22:38:26;;;;;;;15.43;8.58;;;;;;;9.29;72.05;100518.44;255007;1101;115645;-65
2021/09/04 22:43:28;;;;;;;10.48;8.25;;;;;;;9.20;71.78;100513.53;255255;1104;114979;-64
2021/09/04 22:48:31;;;;;;;14.63;8.05;;;;;;;9.08;72.16;100516.83;254012;1102;116330;-66
2021/09/04 22:53:34;;;;;;;6.53;4.98;;;;;;;8.95;72.63;100519.48;255651;1101;115725;-66
2021/09/04 22:58:37;;;;;;;8.65;7.43;;;;;;;8.88;72.94;100523.16;255331;1102;118837;-64